Bend, OR

9:21 PM PDT on October 30, 2014 (GMT -0700)
Lava Ridges | Change Station
CLOSE
Current Station
Personal Weather Station
Location: Bend, OR
Elevation: 3465 ft
Nearby Weather Stations

Elev 3465 ft 44.09 °N, 121.28 °W | Updated 13 seconds ago

Rain
Rain
48.6 °F
Feels Like 49 °F
N
0.9
Wind Variable Wind from WNW
Gusts 4.0 mph

Today
High -- | Low -- °F
--% Chance of Precip.
Yesterday
High -- | Low -- °F
Precip. -- in
7:39 AM 5:57 PM
Waxing Crescent, 51% visible
Pressure 29.79 in
Visibility 10.0 miles
Clouds Few 12000 ft
Windchill 49 °F
Dew Point 46 °F
Humidity 91%
Rainfall 0.18 in
Snow Depth Not available.
UV 0 out of 12
Pollen .30 out of 12
Air Quality Not available.
Flu Activity Not available.
METAR KRDM 310356Z AUTO 32009KT 10SM FEW120 10/09 A2980 RMK AO2 SLP088 T01000089

More Conditions Fewer Conditions

Pressure 29.79 in
Visibility 10.0 miles
Clouds Few 12000 ft
Windchill 49 °F
Dew Point 46 °F
Humidity 91%
Rainfall 0.18 in
Snow Depth Not available.
UV 0 out of 12
Pollen .30 out of 12
Air Quality Not available.
Flu Activity Not available.
METAR KRDM 310356Z AUTO 32009KT 10SM FEW120 10/09 A2980 RMK AO2 SLP088 T01000089

More Conditions Fewer Conditions

10-Day Weather Forecast

Almanac

Astronomy

Oct. 30, 2014 Rise Set
Actual Time
Civil Twilight
Nautical Twilight
Astronomical Twilight
Moon
Length of Visible Light
Length of Day
Tomorrow will be .
, % of the Moon is Illuminated

Today's Extremes

State Highs State Lows

Community

WunderPhotos

Upload Photos

1,766,565 photos uploaded!

WunderBlogs® & News

Nearby

Air Quality

  Air Quality AQ Index Pollutant
Not available.

Snow Depth

Station Depth Elevation

Earthquake Activity

City Distance Mag. Time & Date
Minimum magnitude displayed is 2.5.

Coastal Water Temperatures

Place Temperature

Nearby Weather Stations